Terminal Aerodrome Forecast
Issued by NWS

Home | Current Version | Previous Version | Text Only | Print | Product List | Glossary On
Versions: 1 2 3 4 5 6 7 8 9 10 11 12 13 14 15 16
095
FTUS42 KMLB 240255 AAA
TAFSUA
TAF AMD
KSUA 240255Z 2403/2424 17004KT P6SM BKN200
     FM241400 22005KT P6SM SCT025 BKN200
     FM241800 12008KT P6SM SCT040 BKN250
      AMD NOT SKED=

USA.gov is the U.S. government's official web portal to all federal, state and local government web resources and services.